sensor_id;sensor_type;location;lat;lon;timestamp;P1;durP1;ratioP1;P2;durP2;ratioP2
42194;SDS011;27863;49.440;11.102;2023-08-17T00:01:28;5.68;;;5.20;;
42194;SDS011;27863;49.440;11.102;2023-08-17T00:04:28;5.18;;;4.78;;
42194;SDS011;27863;49.440;11.102;2023-08-17T00:07:30;6.13;;;5.63;;
42194;SDS011;27863;49.440;11.102;2023-08-17T00:10:31;6.20;;;5.68;;
42194;SDS011;27863;49.440;11.102;2023-08-17T00:13:33;6.57;;;6.07;;
42194;SDS011;27863;49.440;11.102;2023-08-17T00:16:33;6.10;;;5.60;;
42194;SDS011;27863;49.440;11.102;2023-08-17T00:19:34;5.55;;;5.15;;
42194;SDS011;27863;49.440;11.102;2023-08-17T00:22:34;6.50;;;6.07;;
42194;SDS011;27863;49.440;11.102;2023-08-17T00:25:35;5.80;;;5.35;;
42194;SDS011;27863;49.440;11.102;2023-08-17T00:28:35;6.07;;;5.57;;
42194;SDS011;27863;49.440;11.102;2023-08-17T00:31:36;6.32;;;5.82;;
42194;SDS011;27863;49.440;11.102;2023-08-17T00:34:41;6.97;;;6.38;;
42194;SDS011;27863;49.440;11.102;2023-08-17T00:37:42;6.13;;;5.68;;
42194;SDS011;27863;49.440;11.102;2023-08-17T00:40:43;6.28;;;5.78;;
42194;SDS011;27863;49.440;11.102;2023-08-17T00:43:43;5.95;;;5.35;;
42194;SDS011;27863;49.440;11.102;2023-08-17T00:46:44;6.45;;;5.93;;
42194;SDS011;27863;49.440;11.102;2023-08-17T00:49:46;5.22;;;4.82;;
42194;SDS011;27863;49.440;11.102;2023-08-17T00:52:47;6.32;;;5.82;;
42194;SDS011;27863;49.440;11.102;2023-08-17T00:55:48;6.45;;;5.90;;
42194;SDS011;27863;49.440;11.102;2023-08-17T00:58:49;6.53;;;5.93;;
42194;SDS011;27863;49.440;11.102;2023-08-17T01:01:49;6.05;;;5.55;;
42194;SDS011;27863;49.440;11.102;2023-08-17T01:04:50;5.57;;;5.07;;
42194;SDS011;27863;49.440;11.102;2023-08-17T01:07:51;6.03;;;5.60;;
42194;SDS011;27863;49.440;11.102;2023-08-17T01:10:59;5.55;;;5.15;;
42194;SDS011;27863;49.440;11.102;2023-08-17T01:14:10;6.35;;;5.85;;
42194;SDS011;27863;49.440;11.102;2023-08-17T01:20:38;7.00;;;6.03;;
42194;SDS011;27863;49.440;11.102;2023-08-17T01:23:40;6.18;;;5.68;;
42194;SDS011;27863;49.440;11.102;2023-08-17T01:26:41;6.00;;;5.60;;
42194;SDS011;27863;49.440;11.102;2023-08-17T01:29:41;6.43;;;5.82;;
42194;SDS011;27863;49.440;11.102;2023-08-17T01:32:50;5.80;;;5.38;;
42194;SDS011;27863;49.440;11.102;2023-08-17T01:35:58;6.63;;;6.13;;
42194;SDS011;27863;49.440;11.102;2023-08-17T01:39:04;8.40;;;6.65;;
42194;SDS011;27863;49.440;11.102;2023-08-17T01:42:05;6.13;;;5.57;;
42194;SDS011;27863;49.440;11.102;2023-08-17T01:45:07;6.10;;;5.70;;
42194;SDS011;27863;49.440;11.102;2023-08-17T01:48:07;7.20;;;6.50;;
42194;SDS011;27863;49.440;11.102;2023-08-17T01:51:10;6.53;;;6.03;;
42194;SDS011;27863;49.440;11.102;2023-08-17T01:54:10;6.72;;;6.13;;
42194;SDS011;27863;49.440;11.102;2023-08-17T01:57:11;6.47;;;5.88;;
42194;SDS011;27863;49.440;11.102;2023-08-17T02:00:12;7.38;;;6.07;;
42194;SDS011;27863;49.440;11.102;2023-08-17T02:03:16;7.88;;;5.53;;
42194;SDS011;27863;49.440;11.102;2023-08-17T02:06:17;8.05;;;5.72;;
42194;SDS011;27863;49.440;11.102;2023-08-17T02:09:17;6.40;;;5.90;;
42194;SDS011;27863;49.440;11.102;2023-08-17T02:12:18;6.70;;;6.10;;
42194;SDS011;27863;49.440;11.102;2023-08-17T02:15:18;5.75;;;5.25;;
42194;SDS011;27863;49.440;11.102;2023-08-17T02:18:19;5.82;;;5.45;;
42194;SDS011;27863;49.440;11.102;2023-08-17T02:21:19;5.68;;;5.28;;
42194;SDS011;27863;49.440;11.102;2023-08-17T02:24:20;6.18;;;5.68;;
42194;SDS011;27863;49.440;11.102;2023-08-17T02:27:20;6.15;;;5.65;;
42194;SDS011;27863;49.440;11.102;2023-08-17T02:30:21;6.60;;;6.03;;
42194;SDS011;27863;49.440;11.102;2023-08-17T02:33:22;7.18;;;6.57;;
42194;SDS011;27863;49.440;11.102;2023-08-17T02:36:24;8.32;;;5.93;;
42194;SDS011;27863;49.440;11.102;2023-08-17T02:39:24;6.43;;;6.03;;
42194;SDS011;27863;49.440;11.102;2023-08-17T02:42:25;6.88;;;6.38;;
42194;SDS011;27863;49.440;11.102;2023-08-17T02:45:27;6.57;;;6.07;;
42194;SDS011;27863;49.440;11.102;2023-08-17T02:48:28;7.20;;;6.13;;
42194;SDS011;27863;49.440;11.102;2023-08-17T02:51:30;6.90;;;6.35;;
42194;SDS011;27863;49.440;11.102;2023-08-17T02:54:30;6.68;;;6.13;;
42194;SDS011;27863;49.440;11.102;2023-08-17T02:57:31;6.53;;;6.03;;
42194;SDS011;27863;49.440;11.102;2023-08-17T03:00:32;5.93;;;5.43;;
42194;SDS011;27863;49.440;11.102;2023-08-17T03:03:33;7.63;;;6.88;;
42194;SDS011;27863;49.440;11.102;2023-08-17T03:06:34;11.07;;;6.85;;
42194;SDS011;27863;49.440;11.102;2023-08-17T03:09:35;6.55;;;5.93;;
42194;SDS011;27863;49.440;11.102;2023-08-17T03:12:36;6.43;;;6.03;;
42194;SDS011;27863;49.440;11.102;2023-08-17T03:15:37;6.75;;;6.15;;
42194;SDS011;27863;49.440;11.102;2023-08-17T03:18:40;6.80;;;6.30;;
42194;SDS011;27863;49.440;11.102;2023-08-17T03:21:41;6.25;;;5.72;;
42194;SDS011;27863;49.440;11.102;2023-08-17T03:24:41;6.35;;;5.90;;
42194;SDS011;27863;49.440;11.102;2023-08-17T03:27:42;6.25;;;5.80;;
42194;SDS011;27863;49.440;11.102;2023-08-17T03:30:43;6.97;;;6.47;;
42194;SDS011;27863;49.440;11.102;2023-08-17T03:33:43;7.05;;;6.40;;
42194;SDS011;27863;49.440;11.102;2023-08-17T03:36:44;7.63;;;6.93;;
42194;SDS011;27863;49.440;11.102;2023-08-17T03:39:44;6.25;;;5.75;;
42194;SDS011;27863;49.440;11.102;2023-08-17T03:42:45;6.63;;;5.95;;
42194;SDS011;27863;49.440;11.102;2023-08-17T03:45:46;6.82;;;6.30;;
42194;SDS011;27863;49.440;11.102;2023-08-17T03:48:47;6.72;;;6.20;;
42194;SDS011;27863;49.440;11.102;2023-08-17T03:51:48;6.00;;;5.50;;
42194;SDS011;27863;49.440;11.102;2023-08-17T03:54:49;7.00;;;6.30;;
42194;SDS011;27863;49.440;11.102;2023-08-17T03:57:51;7.00;;;6.28;;
42194;SDS011;27863;49.440;11.102;2023-08-17T04:00:51;6.50;;;6.00;;
42194;SDS011;27863;49.440;11.102;2023-08-17T04:03:58;6.50;;;6.00;;
42194;SDS011;27863;49.440;11.102;2023-08-17T04:06:58;7.25;;;6.63;;
42194;SDS011;27863;49.440;11.102;2023-08-17T04:09:59;6.32;;;5.88;;
42194;SDS011;27863;49.440;11.102;2023-08-17T04:13:00;6.90;;;6.38;;
42194;SDS011;27863;49.440;11.102;2023-08-17T04:16:01;7.20;;;6.70;;
42194;SDS011;27863;49.440;11.102;2023-08-17T04:19:01;7.32;;;6.72;;
42194;SDS011;27863;49.440;11.102;2023-08-17T04:22:02;6.63;;;6.13;;
42194;SDS011;27863;49.440;11.102;2023-08-17T04:25:02;6.88;;;6.35;;
42194;SDS011;27863;49.440;11.102;2023-08-17T04:28:03;7.20;;;6.50;;
42194;SDS011;27863;49.440;11.102;2023-08-17T04:31:05;6.75;;;6.25;;
42194;SDS011;27863;49.440;11.102;2023-08-17T04:34:09;8.30;;;7.00;;
42194;SDS011;27863;49.440;11.102;2023-08-17T04:37:11;10.07;;;7.03;;
42194;SDS011;27863;49.440;11.102;2023-08-17T04:40:11;7.40;;;6.80;;
42194;SDS011;27863;49.440;11.102;2023-08-17T04:43:12;6.38;;;5.90;;
42194;SDS011;27863;49.440;11.102;2023-08-17T04:46:13;7.38;;;6.70;;
42194;SDS011;27863;49.440;11.102;2023-08-17T04:49:16;6.70;;;6.30;;
42194;SDS011;27863;49.440;11.102;2023-08-17T04:52:17;7.57;;;7.07;;
42194;SDS011;27863;49.440;11.102;2023-08-17T04:55:17;6.78;;;6.28;;
42194;SDS011;27863;49.440;11.102;2023-08-17T04:58:18;6.93;;;6.43;;
42194;SDS011;27863;49.440;11.102;2023-08-17T05:01:18;7.25;;;6.68;;
42194;SDS011;27863;49.440;11.102;2023-08-17T05:04:19;6.70;;;6.25;;
42194;SDS011;27863;49.440;11.102;2023-08-17T05:07:19;7.88;;;7.28;;
42194;SDS011;27863;49.440;11.102;2023-08-17T05:10:20;7.28;;;6.63;;
42194;SDS011;27863;49.440;11.102;2023-08-17T05:13:21;8.18;;;7.57;;
42194;SDS011;27863;49.440;11.102;2023-08-17T05:16:27;7.35;;;6.75;;
42194;SDS011;27863;49.440;11.102;2023-08-17T05:19:28;7.75;;;7.07;;
42194;SDS011;27863;49.440;11.102;2023-08-17T05:22:29;7.00;;;6.40;;
42194;SDS011;27863;49.440;11.102;2023-08-17T05:25:30;8.05;;;6.80;;
42194;SDS011;27863;49.440;11.102;2023-08-17T05:28:31;7.57;;;6.55;;
42194;SDS011;27863;49.440;11.102;2023-08-17T05:31:31;9.60;;;6.20;;
42194;SDS011;27863;49.440;11.102;2023-08-17T05:34:32;6.60;;;5.97;;
42194;SDS011;27863;49.440;11.102;2023-08-17T05:37:32;6.75;;;6.05;;
42194;SDS011;27863;49.440;11.102;2023-08-17T05:40:33;8.48;;;5.85;;
42194;SDS011;27863;49.440;11.102;2023-08-17T05:43:34;7.60;;;7.00;;
42194;SDS011;27863;49.440;11.102;2023-08-17T05:46:34;7.18;;;6.50;;
42194;SDS011;27863;49.440;11.102;2023-08-17T05:49:35;8.07;;;7.35;;
42194;SDS011;27863;49.440;11.102;2023-08-17T05:52:35;6.57;;;6.07;;
42194;SDS011;27863;49.440;11.102;2023-08-17T05:55:36;7.05;;;6.55;;
42194;SDS011;27863;49.440;11.102;2023-08-17T05:58:37;6.45;;;5.95;;
42194;SDS011;27863;49.440;11.102;2023-08-17T06:01:37;7.22;;;6.63;;
42194;SDS011;27863;49.440;11.102;2023-08-17T06:04:38;7.85;;;6.90;;
42194;SDS011;27863;49.440;11.102;2023-08-17T06:07:38;6.78;;;6.10;;
42194;SDS011;27863;49.440;11.102;2023-08-17T06:10:39;8.10;;;7.05;;
42194;SDS011;27863;49.440;11.102;2023-08-17T06:13:39;8.48;;;5.85;;
42194;SDS011;27863;49.440;11.102;2023-08-17T06:16:40;6.03;;;5.63;;
42194;SDS011;27863;49.440;11.102;2023-08-17T06:19:40;5.55;;;5.05;;
42194;SDS011;27863;49.440;11.102;2023-08-17T06:22:42;5.97;;;5.47;;
42194;SDS011;27863;49.440;11.102;2023-08-17T06:25:43;6.40;;;4.90;;
42194;SDS011;27863;49.440;11.102;2023-08-17T06:28:44;5.45;;;5.05;;
42194;SDS011;27863;49.440;11.102;2023-08-17T06:31:46;5.72;;;5.20;;
42194;SDS011;27863;49.440;11.102;2023-08-17T06:34:46;6.20;;;5.35;;
42194;SDS011;27863;49.440;11.102;2023-08-17T06:37:47;4.85;;;4.55;;
42194;SDS011;27863;49.440;11.102;2023-08-17T06:40:51;5.25;;;4.85;;
42194;SDS011;27863;49.440;11.102;2023-08-17T06:43:52;4.97;;;4.57;;
42194;SDS011;27863;49.440;11.102;2023-08-17T06:46:53;5.72;;;5.32;;
42194;SDS011;27863;49.440;11.102;2023-08-17T06:49:54;6.68;;;4.70;;
42194;SDS011;27863;49.440;11.102;2023-08-17T06:52:55;5.05;;;4.65;;
42194;SDS011;27863;49.440;11.102;2023-08-17T06:55:55;4.80;;;4.40;;
42194;SDS011;27863;49.440;11.102;2023-08-17T06:58:56;4.45;;;4.10;;
42194;SDS011;27863;49.440;11.102;2023-08-17T07:01:56;4.95;;;4.55;;
42194;SDS011;27863;49.440;11.102;2023-08-17T07:04:57;4.40;;;4.10;;
42194;SDS011;27863;49.440;11.102;2023-08-17T07:07:58;4.55;;;4.15;;
42194;SDS011;27863;49.440;11.102;2023-08-17T07:10:59;5.07;;;4.68;;
42194;SDS011;27863;49.440;11.102;2023-08-17T07:14:00;4.45;;;4.15;;
42194;SDS011;27863;49.440;11.102;2023-08-17T07:17:00;4.75;;;4.43;;
42194;SDS011;27863;49.440;11.102;2023-08-17T07:20:01;4.80;;;4.25;;
42194;SDS011;27863;49.440;11.102;2023-08-17T07:23:01;4.50;;;4.10;;
42194;SDS011;27863;49.440;11.102;2023-08-17T07:26:02;4.60;;;4.22;;
42194;SDS011;27863;49.440;11.102;2023-08-17T07:29:03;4.50;;;4.20;;
42194;SDS011;27863;49.440;11.102;2023-08-17T07:32:04;4.80;;;4.32;;
42194;SDS011;27863;49.440;11.102;2023-08-17T07:35:05;4.50;;;4.20;;
42194;SDS011;27863;49.440;11.102;2023-08-17T07:38:06;4.57;;;4.20;;
42194;SDS011;27863;49.440;11.102;2023-08-17T07:41:07;4.32;;;4.03;;
42194;SDS011;27863;49.440;11.102;2023-08-17T07:44:08;4.22;;;3.92;;
42194;SDS011;27863;49.440;11.102;2023-08-17T07:47:09;4.57;;;4.20;;
42194;SDS011;27863;49.440;11.102;2023-08-17T07:50:10;4.03;;;3.72;;
42194;SDS011;27863;49.440;11.102;2023-08-17T07:53:11;4.82;;;4.43;;
42194;SDS011;27863;49.440;11.102;2023-08-17T07:56:12;4.47;;;4.18;;
42194;SDS011;27863;49.440;11.102;2023-08-17T07:59:13;4.75;;;4.45;;
42194;SDS011;27863;49.440;11.102;2023-08-17T08:02:13;7.45;;;4.25;;
42194;SDS011;27863;49.440;11.102;2023-08-17T08:05:14;4.97;;;4.60;;
42194;SDS011;27863;49.440;11.102;2023-08-17T08:08:15;4.97;;;4.57;;
42194;SDS011;27863;49.440;11.102;2023-08-17T08:11:17;4.63;;;4.30;;
42194;SDS011;27863;49.440;11.102;2023-08-17T08:14:18;4.80;;;4.22;;
42194;SDS011;27863;49.440;11.102;2023-08-17T08:17:18;5.15;;;4.80;;
42194;SDS011;27863;49.440;11.102;2023-08-17T08:20:20;4.85;;;4.47;;
42194;SDS011;27863;49.440;11.102;2023-08-17T08:23:20;4.72;;;4.22;;
42194;SDS011;27863;49.440;11.102;2023-08-17T08:26:23;5.05;;;4.55;;
42194;SDS011;27863;49.440;11.102;2023-08-17T08:29:23;4.90;;;4.60;;
42194;SDS011;27863;49.440;11.102;2023-08-17T08:32:24;5.53;;;5.03;;
42194;SDS011;27863;49.440;11.102;2023-08-17T08:35:25;5.20;;;4.90;;
42194;SDS011;27863;49.440;11.102;2023-08-17T08:38:26;4.68;;;4.35;;
42194;SDS011;27863;49.440;11.102;2023-08-17T08:41:26;5.15;;;4.85;;
42194;SDS011;27863;49.440;11.102;2023-08-17T08:44:28;5.13;;;4.82;;
42194;SDS011;27863;49.440;11.102;2023-08-17T08:47:29;5.25;;;4.85;;
42194;SDS011;27863;49.440;11.102;2023-08-17T08:50:31;5.85;;;5.18;;
42194;SDS011;27863;49.440;11.102;2023-08-17T08:53:36;5.68;;;5.30;;
42194;SDS011;27863;49.440;11.102;2023-08-17T08:56:37;4.93;;;4.63;;
42194;SDS011;27863;49.440;11.102;2023-08-17T08:59:40;5.57;;;5.07;;
42194;SDS011;27863;49.440;11.102;2023-08-17T09:02:44;5.22;;;4.88;;
42194;SDS011;27863;49.440;11.102;2023-08-17T09:05:48;5.20;;;4.88;;
42194;SDS011;27863;49.440;11.102;2023-08-17T09:08:50;5.00;;;4.68;;
42194;SDS011;27863;49.440;11.102;2023-08-17T09:11:51;5.50;;;5.00;;
42194;SDS011;27863;49.440;11.102;2023-08-17T09:14:52;5.45;;;5.05;;
42194;SDS011;27863;49.440;11.102;2023-08-17T09:17:54;5.03;;;4.72;;
42194;SDS011;27863;49.440;11.102;2023-08-17T09:20:54;4.70;;;4.35;;
42194;SDS011;27863;49.440;11.102;2023-08-17T09:23:55;6.35;;;5.85;;
42194;SDS011;27863;49.440;11.102;2023-08-17T09:26:56;5.50;;;5.20;;
42194;SDS011;27863;49.440;11.102;2023-08-17T09:30:04;5.68;;;5.28;;
42194;SDS011;27863;49.440;11.102;2023-08-17T09:33:06;5.63;;;5.32;;
42194;SDS011;27863;49.440;11.102;2023-08-17T09:36:06;6.53;;;6.03;;
42194;SDS011;27863;49.440;11.102;2023-08-17T09:39:10;6.97;;;6.57;;
42194;SDS011;27863;49.440;11.102;2023-08-17T09:42:10;7.30;;;6.80;;
42194;SDS011;27863;49.440;11.102;2023-08-17T09:45:11;9.13;;;8.32;;
42194;SDS011;27863;49.440;11.102;2023-08-17T09:48:11;7.80;;;7.35;;
42194;SDS011;27863;49.440;11.102;2023-08-17T09:51:15;8.05;;;7.53;;
42194;SDS011;27863;49.440;11.102;2023-08-17T09:54:22;7.88;;;7.28;;
42194;SDS011;27863;49.440;11.102;2023-08-17T09:57:23;8.05;;;7.45;;
42194;SDS011;27863;49.440;11.102;2023-08-17T10:00:24;8.07;;;7.40;;
42194;SDS011;27863;49.440;11.102;2023-08-17T10:03:25;8.63;;;7.97;;
42194;SDS011;27863;49.440;11.102;2023-08-17T10:06:27;8.13;;;7.53;;
42194;SDS011;27863;49.440;11.102;2023-08-17T10:09:38;8.75;;;8.15;;
42194;SDS011;27863;49.440;11.102;2023-08-17T10:13:31;9.30;;;8.60;;
42194;SDS011;27863;49.440;11.102;2023-08-17T10:16:23;8.13;;;7.57;;
42194;SDS011;27863;49.440;11.102;2023-08-17T10:22:36;7.95;;;7.45;;
42194;SDS011;27863;49.440;11.102;2023-08-17T10:25:45;9.90;;;8.93;;
42194;SDS011;27863;49.440;11.102;2023-08-17T10:28:47;7.90;;;7.22;;
42194;SDS011;27863;49.440;11.102;2023-08-17T10:31:48;8.32;;;7.82;;
42194;SDS011;27863;49.440;11.102;2023-08-17T10:34:49;8.10;;;7.50;;
42194;SDS011;27863;49.440;11.102;2023-08-17T10:37:51;7.50;;;7.05;;
42194;SDS011;27863;49.440;11.102;2023-08-17T10:41:07;7.35;;;6.75;;
42194;SDS011;27863;49.440;11.102;2023-08-17T10:44:16;9.35;;;7.40;;
42194;SDS011;27863;49.440;11.102;2023-08-17T10:50:24;7.93;;;7.40;;
42194;SDS011;27863;49.440;11.102;2023-08-17T10:53:24;8.05;;;7.65;;
42194;SDS011;27863;49.440;11.102;2023-08-17T10:56:26;8.77;;;8.15;;
42194;SDS011;27863;49.440;11.102;2023-08-17T10:59:27;8.02;;;7.45;;
42194;SDS011;27863;49.440;11.102;2023-08-17T11:02:31;7.40;;;6.88;;
42194;SDS011;27863;49.440;11.102;2023-08-17T11:05:51;8.60;;;7.95;;
42194;SDS011;27863;49.440;11.102;2023-08-17T11:08:57;8.85;;;8.07;;
42194;SDS011;27863;49.440;11.102;2023-08-17T11:11:59;8.55;;;7.95;;
42194;SDS011;27863;49.440;11.102;2023-08-17T11:15:00;6.78;;;6.38;;
42194;SDS011;27863;49.440;11.102;2023-08-17T11:18:00;7.00;;;6.50;;
42194;SDS011;27863;49.440;11.102;2023-08-17T11:21:01;8.98;;;6.90;;
42194;SDS011;27863;49.440;11.102;2023-08-17T11:24:06;7.75;;;7.15;;
42194;SDS011;27863;49.440;11.102;2023-08-17T11:27:09;7.55;;;7.03;;
42194;SDS011;27863;49.440;11.102;2023-08-17T11:30:10;7.68;;;7.05;;
42194;SDS011;27863;49.440;11.102;2023-08-17T11:33:11;8.63;;;7.03;;
42194;SDS011;27863;49.440;11.102;2023-08-17T11:36:12;7.20;;;6.70;;
42194;SDS011;27863;49.440;11.102;2023-08-17T11:39:13;7.28;;;6.78;;
42194;SDS011;27863;49.440;11.102;2023-08-17T11:42:14;6.90;;;6.40;;
42194;SDS011;27863;49.440;11.102;2023-08-17T11:45:14;7.53;;;7.03;;
42194;SDS011;27863;49.440;11.102;2023-08-17T11:48:15;7.35;;;6.85;;
42194;SDS011;27863;49.440;11.102;2023-08-17T11:51:19;7.28;;;6.78;;
42194;SDS011;27863;49.440;11.102;2023-08-17T11:54:32;7.65;;;7.10;;
42194;SDS011;27863;49.440;11.102;2023-08-17T11:57:33;8.00;;;7.30;;
42194;SDS011;27863;49.440;11.102;2023-08-17T12:00:37;7.15;;;6.75;;
42194;SDS011;27863;49.440;11.102;2023-08-17T12:03:41;8.13;;;7.43;;
42194;SDS011;27863;49.440;11.102;2023-08-17T12:06:43;6.93;;;6.45;;
42194;SDS011;27863;49.440;11.102;2023-08-17T12:09:48;7.53;;;6.93;;
42194;SDS011;27863;49.440;11.102;2023-08-17T12:12:49;7.28;;;6.88;;
42194;SDS011;27863;49.440;11.102;2023-08-17T12:15:49;7.88;;;7.38;;
42194;SDS011;27863;49.440;11.102;2023-08-17T12:18:50;7.75;;;7.07;;
42194;SDS011;27863;49.440;11.102;2023-08-17T12:21:52;7.85;;;7.28;;
42194;SDS011;27863;49.440;11.102;2023-08-17T12:24:53;6.57;;;6.07;;
42194;SDS011;27863;49.440;11.102;2023-08-17T12:27:53;7.30;;;6.68;;
42194;SDS011;27863;49.440;11.102;2023-08-17T12:31:01;7.68;;;7.07;;
42194;SDS011;27863;49.440;11.102;2023-08-17T12:34:02;7.88;;;7.35;;
42194;SDS011;27863;49.440;11.102;2023-08-17T12:37:07;11.60;;;6.90;;
42194;SDS011;27863;49.440;11.102;2023-08-17T12:40:11;7.15;;;6.75;;
42194;SDS011;27863;49.440;11.102;2023-08-17T12:43:12;7.50;;;6.90;;
42194;SDS011;27863;49.440;11.102;2023-08-17T12:46:13;7.65;;;7.20;;
42194;SDS011;27863;49.440;11.102;2023-08-17T12:49:13;7.55;;;7.03;;
42194;SDS011;27863;49.440;11.102;2023-08-17T12:52:14;7.55;;;6.65;;
42194;SDS011;27863;49.440;11.102;2023-08-17T12:55:14;7.00;;;6.47;;
42194;SDS011;27863;49.440;11.102;2023-08-17T12:58:15;7.05;;;6.45;;
42194;SDS011;27863;49.440;11.102;2023-08-17T13:01:15;6.95;;;6.45;;
42194;SDS011;27863;49.440;11.102;2023-08-17T13:04:16;6.50;;;6.10;;
42194;SDS011;27863;49.440;11.102;2023-08-17T13:07:16;6.75;;;6.35;;
42194;SDS011;27863;49.440;11.102;2023-08-17T13:10:17;7.05;;;6.55;;
42194;SDS011;27863;49.440;11.102;2023-08-17T13:13:17;6.63;;;6.22;;
42194;SDS011;27863;49.440;11.102;2023-08-17T13:16:19;8.43;;;7.72;;
42194;SDS011;27863;49.440;11.102;2023-08-17T13:19:22;7.05;;;6.55;;
42194;SDS011;27863;49.440;11.102;2023-08-17T13:22:23;6.47;;;6.07;;
42194;SDS011;27863;49.440;11.102;2023-08-17T13:25:24;6.63;;;6.22;;
42194;SDS011;27863;49.440;11.102;2023-08-17T13:28:25;6.13;;;5.72;;
42194;SDS011;27863;49.440;11.102;2023-08-17T13:31:29;6.53;;;5.85;;
42194;SDS011;27863;49.440;11.102;2023-08-17T13:34:29;5.82;;;5.32;;
42194;SDS011;27863;49.440;11.102;2023-08-17T13:37:30;6.47;;;5.97;;
42194;SDS011;27863;49.440;11.102;2023-08-17T13:40:31;6.65;;;6.05;;
42194;SDS011;27863;49.440;11.102;2023-08-17T13:43:33;6.50;;;6.10;;
42194;SDS011;27863;49.440;11.102;2023-08-17T13:46:34;5.97;;;5.57;;
42194;SDS011;27863;49.440;11.102;2023-08-17T13:49:34;6.20;;;5.70;;
42194;SDS011;27863;49.440;11.102;2023-08-17T13:52:36;6.75;;;6.05;;
42194;SDS011;27863;49.440;11.102;2023-08-17T13:55:37;6.68;;;6.28;;
42194;SDS011;27863;49.440;11.102;2023-08-17T13:58:37;6.57;;;6.03;;
42194;SDS011;27863;49.440;11.102;2023-08-17T14:01:38;6.68;;;6.22;;
42194;SDS011;27863;49.440;11.102;2023-08-17T14:04:38;5.88;;;5.35;;
42194;SDS011;27863;49.440;11.102;2023-08-17T14:07:39;5.53;;;5.05;;
42194;SDS011;27863;49.440;11.102;2023-08-17T14:10:39;6.05;;;5.50;;
42194;SDS011;27863;49.440;11.102;2023-08-17T14:13:40;6.68;;;6.28;;
42194;SDS011;27863;49.440;11.102;2023-08-17T14:16:41;6.20;;;5.80;;
42194;SDS011;27863;49.440;11.102;2023-08-17T14:19:42;6.60;;;6.10;;
42194;SDS011;27863;49.440;11.102;2023-08-17T14:22:43;6.47;;;5.97;;
42194;SDS011;27863;49.440;11.102;2023-08-17T14:25:43;6.55;;;5.90;;
42194;SDS011;27863;49.440;11.102;2023-08-17T14:28:48;5.50;;;5.18;;
42194;SDS011;27863;49.440;11.102;2023-08-17T14:31:52;5.13;;;4.82;;
42194;SDS011;27863;49.440;11.102;2023-08-17T14:34:53;6.13;;;5.72;;
42194;SDS011;27863;49.440;11.102;2023-08-17T14:37:54;6.47;;;5.88;;
42194;SDS011;27863;49.440;11.102;2023-08-17T14:40:57;6.70;;;6.07;;
42194;SDS011;27863;49.440;11.102;2023-08-17T14:43:59;6.70;;;6.15;;
42194;SDS011;27863;49.440;11.102;2023-08-17T14:47:00;7.20;;;6.72;;
42194;SDS011;27863;49.440;11.102;2023-08-17T14:50:00;7.18;;;6.57;;
42194;SDS011;27863;49.440;11.102;2023-08-17T14:53:01;7.95;;;7.25;;
42194;SDS011;27863;49.440;11.102;2023-08-17T14:56:02;7.35;;;6.85;;
42194;SDS011;27863;49.440;11.102;2023-08-17T14:59:03;8.80;;;8.20;;
42194;SDS011;27863;49.440;11.102;2023-08-17T15:02:04;8.32;;;7.63;;
42194;SDS011;27863;49.440;11.102;2023-08-17T15:05:06;8.23;;;7.63;;
42194;SDS011;27863;49.440;11.102;2023-08-17T15:08:06;8.75;;;8.15;;
42194;SDS011;27863;49.440;11.102;2023-08-17T15:11:07;7.60;;;7.00;;
42194;SDS011;27863;49.440;11.102;2023-08-17T15:14:07;8.80;;;8.00;;
42194;SDS011;27863;49.440;11.102;2023-08-17T15:17:08;9.10;;;8.52;;
42194;SDS011;27863;49.440;11.102;2023-08-17T15:20:12;7.93;;;7.15;;
42194;SDS011;27863;49.440;11.102;2023-08-17T15:23:12;8.25;;;7.53;;
42194;SDS011;27863;49.440;11.102;2023-08-17T15:26:13;7.68;;;7.13;;
42194;SDS011;27863;49.440;11.102;2023-08-17T15:29:14;8.15;;;7.60;;
42194;SDS011;27863;49.440;11.102;2023-08-17T15:32:14;9.20;;;8.60;;
42194;SDS011;27863;49.440;11.102;2023-08-17T15:35:15;12.90;;;7.80;;
42194;SDS011;27863;49.440;11.102;2023-08-17T15:38:16;10.95;;;9.88;;
42194;SDS011;27863;49.440;11.102;2023-08-17T15:41:17;8.98;;;8.07;;
42194;SDS011;27863;49.440;11.102;2023-08-17T15:44:18;16.83;;;9.20;;
42194;SDS011;27863;49.440;11.102;2023-08-17T15:47:19;11.13;;;7.03;;
42194;SDS011;27863;49.440;11.102;2023-08-17T15:50:19;5.47;;;5.00;;
42194;SDS011;27863;49.440;11.102;2023-08-17T15:53:20;5.53;;;5.03;;
42194;SDS011;27863;49.440;11.102;2023-08-17T15:56:20;5.80;;;5.30;;
42194;SDS011;27863;49.440;11.102;2023-08-17T15:59:21;7.97;;;7.07;;
42194;SDS011;27863;49.440;11.102;2023-08-17T16:02:21;16.80;;;10.73;;
42194;SDS011;27863;49.440;11.102;2023-08-17T16:05:22;11.18;;;9.35;;
42194;SDS011;27863;49.440;11.102;2023-08-17T16:08:23;8.75;;;7.90;;
42194;SDS011;27863;49.440;11.102;2023-08-17T16:11:23;5.25;;;4.32;;
42194;SDS011;27863;49.440;11.102;2023-08-17T16:14:24;5.07;;;4.57;;
42194;SDS011;27863;49.440;11.102;2023-08-17T16:17:25;6.53;;;5.47;;
42194;SDS011;27863;49.440;11.102;2023-08-17T16:20:26;5.18;;;4.78;;
42194;SDS011;27863;49.440;11.102;2023-08-17T16:26:59;4.10;;;3.72;;
42194;SDS011;27863;49.440;11.102;2023-08-17T16:30:01;4.57;;;4.10;;
42194;SDS011;27863;49.440;11.102;2023-08-17T16:33:01;6.53;;;5.93;;
42194;SDS011;27863;49.440;11.102;2023-08-17T16:36:02;7.35;;;6.65;;
42194;SDS011;27863;49.440;11.102;2023-08-17T16:39:03;6.55;;;6.05;;
42194;SDS011;27863;49.440;11.102;2023-08-17T16:42:05;4.97;;;4.57;;
42194;SDS011;27863;49.440;11.102;2023-08-17T16:45:06;5.63;;;4.95;;
42194;SDS011;27863;49.440;11.102;2023-08-17T16:48:07;4.15;;;3.80;;
42194;SDS011;27863;49.440;11.102;2023-08-17T16:51:08;3.53;;;3.30;;
42194;SDS011;27863;49.440;11.102;2023-08-17T16:54:08;4.38;;;3.97;;
42194;SDS011;27863;49.440;11.102;2023-08-17T16:57:09;5.93;;;5.28;;
42194;SDS011;27863;49.440;11.102;2023-08-17T17:00:10;5.82;;;4.97;;
42194;SDS011;27863;49.440;11.102;2023-08-17T17:03:11;9.20;;;5.60;;
42194;SDS011;27863;49.440;11.102;2023-08-17T17:06:11;7.50;;;6.53;;
42194;SDS011;27863;49.440;11.102;2023-08-17T17:09:12;8.73;;;5.72;;
42194;SDS011;27863;49.440;11.102;2023-08-17T17:12:13;4.50;;;4.10;;
42194;SDS011;27863;49.440;11.102;2023-08-17T17:15:14;5.20;;;4.22;;
42194;SDS011;27863;49.440;11.102;2023-08-17T17:18:14;5.07;;;4.53;;
42194;SDS011;27863;49.440;11.102;2023-08-17T17:21:15;4.57;;;4.10;;
42194;SDS011;27863;49.440;11.102;2023-08-17T17:24:15;5.78;;;3.95;;
42194;SDS011;27863;49.440;11.102;2023-08-17T17:27:24;5.28;;;4.88;;
42194;SDS011;27863;49.440;11.102;2023-08-17T17:30:24;4.88;;;4.45;;
42194;SDS011;27863;49.440;11.102;2023-08-17T17:33:25;4.65;;;4.25;;
42194;SDS011;27863;49.440;11.102;2023-08-17T17:36:25;7.72;;;4.97;;
42194;SDS011;27863;49.440;11.102;2023-08-17T17:39:26;5.03;;;4.35;;
42194;SDS011;27863;49.440;11.102;2023-08-17T17:42:26;4.25;;;3.85;;
42194;SDS011;27863;49.440;11.102;2023-08-17T17:45:27;3.88;;;3.58;;
42194;SDS011;27863;49.440;11.102;2023-08-17T17:48:28;3.50;;;3.20;;
42194;SDS011;27863;49.440;11.102;2023-08-17T17:51:28;3.45;;;3.20;;
42194;SDS011;27863;49.440;11.102;2023-08-17T17:54:29;3.90;;;3.60;;
42194;SDS011;27863;49.440;11.102;2023-08-17T17:57:29;7.72;;;3.70;;
42194;SDS011;27863;49.440;11.102;2023-08-17T18:00:30;4.18;;;3.83;;
42194;SDS011;27863;49.440;11.102;2023-08-17T18:03:30;4.53;;;3.90;;
42194;SDS011;27863;49.440;11.102;2023-08-17T18:06:31;3.42;;;3.22;;
42194;SDS011;27863;49.440;11.102;2023-08-17T18:09:35;4.05;;;3.65;;